Skip Navigation Links Skip Navigation Links

Current Weather

Waterbury-Oxford, Oxford, Conn.

For information only: do not use for flight planning or navigation.
Latest weather
Observation time Friday, July 10, 2020 8:51 PM EDT
Local time Friday, July 10, 2020 9:19 PM EDT
Flight conditions Instrument Meteorological Conditions
Winds
Wind direction East-Southeast (120°)
Winds variable from 80° to 150°
Wind speed 15 mph
Wind gusting to 24 mph
Peak wind speed 32 mph, 8:17 PM
Peak wind direction East (100°)
Visibility 8 mi.
Sky condition
Ceiling 600 ft. overcast
Cloud layer overcast 600 ft.
Temperature 72°F
Dewpoint 72°F
Altimeter 29.78 in.Hg
Derived measurements
Relative humidity 100%
Density altitude 2087 ft.
Sea-level pressure 29.80 in.Hg
Climate data
Remarks
Automated weather observing station with precipitation discriminator.
METAR KOXC 110051Z 12013G21KT 080V150 8SM OVC006 22/22 A2978 RMK AO2 PK WND 10028/0017 SLP090 T02220222

Settings

Location code

InnerDrive.Weather 4.0.6770.0 Release CLR 4.0.30319.42000
Copyright ©2018 Inner Drive Technology. All rights reserved. Portions Copyright ©1986-2018 David Braverman.

Find weather

Site navigation


Skip Navigation Links

Place info

Page info

PayPal - The safer, easier way to pay online!

Return home.

Copyright ©2020 Inner Drive Technology. Purveyors of fine, hand-crafted computer software. Page printed 2020-07-11T01:19:09 UTC.